Time;durP1;ratioP1;P1;durP2;ratioP2;P2;SDS_P1;SDS_P2;PMS_P1;PMS_P2;Temp;Humidity;BMP_temperature;BMP_pressure;BME280_temperature;BME280_humidity;BME280_pressure;Samples;Min_cycle;Max_cycle;Signal;HPM_P1;HPM_P2
2023/08/15 00:01:56;;;;;;;;;2.00;2.00;;;;;22.70;69.87;100426.50;5038540;28;45808;-71
2023/08/15 00:04:22;;;;;;;;;3.00;3.00;;;;;22.69;70.37;100419.44;5038492;28;45418;-71
2023/08/15 00:06:48;;;;;;;;;3.00;3.00;;;;;22.73;70.53;100416.69;5037253;28;46154;-71
2023/08/15 00:09:15;;;;;;;;;3.00;2.33;;;;;22.72;71.60;100422.03;5037862;28;45529;-71
2023/08/15 00:11:41;;;;;;;;;4.00;3.33;;;;;22.75;71.09;100425.50;5037970;28;45224;-71
2023/08/15 00:14:07;;;;;;;;;3.00;2.33;;;;;22.81;70.33;100422.69;5038040;28;45470;-71
2023/08/15 00:16:34;;;;;;;;;2.00;2.00;;;;;22.83;70.07;100415.56;5037420;28;45504;-71
2023/08/15 00:19:00;;;;;;;;;3.67;3.00;;;;;22.80;69.37;100410.31;5037925;28;45363;-71
2023/08/15 00:21:25;;;;;;;;;4.00;2.00;;;;;22.82;69.75;100407.63;5037865;28;45616;-71
2023/08/15 00:23:51;;;;;;;;;2.33;2.00;;;;;22.82;69.44;100413.81;5037219;28;45630;-70
2023/08/15 00:26:17;;;;;;;;;2.00;1.00;;;;;22.92;69.33;100419.81;5037913;28;45525;-71
2023/08/15 00:28:43;;;;;;;;;2.00;2.00;;;;;22.91;69.55;100414.50;5036023;28;45692;-71
2023/08/15 00:31:08;;;;;;;;;3.00;2.00;;;;;22.84;70.20;100409.34;5037612;28;45736;-71
2023/08/15 00:33:34;;;;;;;;;3.00;2.00;;;;;22.97;69.33;100412.56;5038052;28;45343;-71
2023/08/15 00:36:09;;;;;;;;;2.67;2.00;;;;;22.97;68.93;100412.56;5038024;28;45366;-71
2023/08/15 00:38:39;;;;;;;;;2.00;2.00;;;;;23.00;70.00;100415.19;5036560;28;45586;-71
2023/08/15 00:41:09;;;;;;;;;3.00;3.00;;;;;22.98;69.83;100417.00;5037741;28;45367;-71
2023/08/15 00:43:45;;;;;;;;;2.00;2.00;;;;;22.94;70.17;100411.75;5038045;28;45323;-71
2023/08/15 00:46:10;;;;;;;;;2.00;1.00;;;;;22.94;70.34;100414.44;5037371;28;46153;-71
2023/08/15 00:48:37;;;;;;;;;2.00;2.00;;;;;22.96;69.91;100409.94;5037342;28;45458;-71
2023/08/15 00:51:03;;;;;;;;;3.00;3.00;;;;;22.96;70.05;100409.94;5037450;28;45340;-71
2023/08/15 00:53:30;;;;;;;;;3.33;3.00;;;;;23.00;69.97;100411.66;5037630;28;45371;-70
2023/08/15 00:55:57;;;;;;;;;2.67;2.00;;;;;23.02;69.40;100409.84;5037426;28;45501;-71
2023/08/15 00:58:24;;;;;;;;;1.00;1.00;;;;;23.03;69.49;100406.25;5037455;28;45283;-71
2023/08/15 01:00:53;;;;;;;;;2.00;2.00;;;;;23.05;69.58;100404.44;5037464;28;45276;-71
2023/08/15 01:03:19;;;;;;;;;3.00;3.00;;;;;23.06;69.84;100399.97;5037177;28;45169;-71
2023/08/15 01:05:47;;;;;;;;;4.67;3.00;;;;;23.03;69.30;100395.59;5037161;28;46195;-71
2023/08/15 01:08:13;;;;;;;;;3.00;2.00;;;;;23.04;69.53;100397.38;5036728;28;45295;-71
2023/08/15 01:10:40;;;;;;;;;2.00;2.00;;;;;23.04;69.76;100400.03;5037033;28;45439;-71
2023/08/15 01:13:22;;;;;;;;;3.00;3.00;;;;;22.96;70.18;100388.63;5037410;28;45216;-71
2023/08/15 01:15:51;;;;;;;;;2.00;2.00;;;;;22.99;69.77;100394.75;5036695;28;45438;-71
2023/08/15 01:18:23;;;;;;;;;2.00;2.00;;;;;22.98;69.98;100405.47;5036293;28;45546;-71
2023/08/15 01:20:50;;;;;;;;;1.00;1.00;;;;;22.95;70.24;100395.75;5036397;28;45513;-71
2023/08/15 01:23:24;;;;;;;;;3.00;2.00;;;;;22.94;69.91;100402.00;5035553;28;45558;-71
2023/08/15 01:25:55;;;;;;;;;2.00;2.00;;;;;22.91;70.16;100393.22;5036766;28;45462;-71
2023/08/15 01:28:21;;;;;;;;;2.33;2.33;;;;;22.91;70.23;100395.88;5039634;28;45442;-71
2023/08/15 01:30:55;;;;;;;;;3.00;2.00;;;;;22.96;70.24;100394.84;5036435;28;45405;-71
2023/08/15 01:34:07;;;;;;;;;3.00;2.00;;;;;22.91;70.61;100396.75;5036593;28;45482;-70
2023/08/15 01:36:44;;;;;;;;;3.00;3.00;;;;;22.90;71.12;100396.78;5010585;28;45610;-70
2023/08/15 01:39:17;;;;;;;;;1.00;1.00;;;;;22.82;71.78;100395.19;5036704;28;45556;-70
2023/08/15 01:41:46;;;;;;;;;2.00;2.00;;;;;22.84;70.92;100384.50;5036691;28;45314;-70
2023/08/15 01:44:15;;;;;;;;;5.00;3.00;;;;;22.87;70.78;100394.19;5036975;28;45592;-70
2023/08/15 01:46:41;;;;;;;;;3.00;2.00;;;;;22.87;70.52;100388.88;5035303;28;46885;-70
2023/08/15 01:49:07;;;;;;;;;2.33;2.33;;;;;22.91;70.49;100383.41;5036744;28;45522;-70
2023/08/15 01:51:33;;;;;;;;;1.00;1.00;;;;;22.83;70.55;100372.94;5036288;28;46250;-70
2023/08/15 01:53:58;;;;;;;;;3.00;2.67;;;;;22.88;70.48;100385.28;5036755;28;45416;-71
2023/08/15 01:56:24;;;;;;;;;4.00;3.00;;;;;22.87;70.55;100383.53;5036610;28;45900;-71
2023/08/15 01:58:50;;;;;;;;;2.33;2.00;;;;;22.79;70.81;100376.59;5036151;28;45510;-71
2023/08/15 02:01:15;;;;;;;;;3.00;2.00;;;;;22.70;72.06;100384.81;5036138;28;45852;-71
2023/08/15 02:03:41;;;;;;;;;3.00;3.00;;;;;22.71;71.94;100383.00;5041607;28;45569;-71
2023/08/15 02:06:08;;;;;;;;;4.00;2.67;;;;;22.63;72.24;100377.84;5040973;28;45449;-70
2023/08/15 02:08:33;;;;;;;;;3.33;2.67;;;;;22.64;72.15;100382.25;5035887;28;45459;-70
2023/08/15 02:10:59;;;;;;;;;3.00;2.00;;;;;22.61;72.40;100379.69;5036156;28;45537;-71
2023/08/15 02:13:30;;;;;;;;;1.67;1.67;;;;;22.61;71.90;100366.38;5036827;28;45379;-70
2023/08/15 02:15:57;;;;;;;;;2.00;1.67;;;;;22.70;70.89;100373.25;5036536;28;46175;-70
2023/08/15 02:18:28;;;;;;;;;2.67;1.67;;;;;22.73;70.78;100370.53;5035629;28;46856;-69
2023/08/15 02:20:54;;;;;;;;;3.33;2.00;;;;;22.73;70.67;100366.09;5035940;28;45525;-70
2023/08/15 02:23:21;;;;;;;;;3.00;1.67;;;;;22.77;70.55;100372.22;5034853;28;45768;-70
2023/08/15 02:25:47;;;;;;;;;1.33;1.33;;;;;22.70;70.96;100382.16;5035912;28;45484;-70
2023/08/15 02:28:13;;;;;;;;;2.00;2.00;;;;;22.70;70.81;100371.50;5035554;28;45601;-70
2023/08/15 02:30:39;;;;;;;;;2.67;2.00;;;;;22.76;70.58;100379.34;5038714;28;45496;-70
2023/08/15 02:33:05;;;;;;;;;2.00;2.00;;;;;22.72;71.10;100379.44;5039314;28;45663;-71
2023/08/15 02:35:33;;;;;;;;;1.33;1.33;;;;;22.67;71.09;100381.34;5039020;28;46168;-71
2023/08/15 02:37:58;;;;;;;;;2.00;2.00;;;;;22.70;70.79;100381.25;5043166;28;45431;-71
2023/08/15 02:40:26;;;;;;;;;2.33;2.00;;;;;22.68;70.59;100383.06;5043847;28;45435;-70
2023/08/15 02:42:51;;;;;;;;;2.00;2.00;;;;;22.75;70.66;100382.91;5047537;28;45397;-70
2023/08/15 02:45:17;;;;;;;;;2.00;2.00;;;;;22.80;71.15;100388.09;5039528;28;45391;-70
2023/08/15 02:47:44;;;;;;;;;2.00;2.00;;;;;22.82;70.80;100388.97;5039147;28;45434;-71
2023/08/15 02:50:11;;;;;;;;;2.33;2.00;;;;;22.84;70.53;100380.03;5039516;28;45406;-70
2023/08/15 02:52:37;;;;;;;;;3.33;2.00;;;;;22.74;70.24;100382.94;5039831;28;45303;-70
2023/08/15 02:55:04;;;;;;;;;2.00;1.00;;;;;22.68;70.69;100372.41;5039284;28;45582;-71
2023/08/15 02:57:30;;;;;;;;;2.00;2.00;;;;;22.66;70.66;100382.22;5039022;28;45565;-71
2023/08/15 02:59:56;;;;;;;;;4.33;3.00;;;;;22.69;70.07;100391.03;5039521;28;45476;-70
2023/08/15 03:02:22;;;;;;;;;3.00;3.00;;;;;22.71;70.58;100389.22;5038964;28;45441;-71
2023/08/15 03:04:48;;;;;;;;;3.33;2.33;;;;;22.75;70.59;100395.34;5038820;28;46112;-71
2023/08/15 03:07:14;;;;;;;;;2.67;2.00;;;;;22.63;70.63;100381.38;5037348;28;45526;-71
2023/08/15 03:09:40;;;;;;;;;3.00;3.00;;;;;22.60;70.71;100372.59;5038421;28;45498;-71
2023/08/15 03:12:06;;;;;;;;;3.00;2.67;;;;;22.66;70.57;100392.88;5039028;28;45431;-70
2023/08/15 03:14:32;;;;;;;;;4.00;2.67;;;;;22.62;70.70;100392.97;5038525;28;45608;-71
2023/08/15 03:16:58;;;;;;;;;3.00;3.00;;;;;22.62;71.33;100389.41;5037608;28;45401;-70
2023/08/15 03:19:24;;;;;;;;;3.67;3.00;;;;;22.60;71.21;100393.88;5038775;28;45480;-71
2023/08/15 03:21:49;;;;;;;;;3.00;3.00;;;;;22.62;70.90;100397.38;5037384;28;45240;-71
2023/08/15 03:24:18;;;;;;;;;4.00;3.00;;;;;22.59;71.65;100398.34;5038415;28;45481;-71
2023/08/15 03:26:44;;;;;;;;;4.33;4.00;;;;;22.56;71.31;100401.09;5038826;28;45519;-71
2023/08/15 03:29:10;;;;;;;;;3.00;3.00;;;;;22.61;71.66;100398.31;5038777;28;45417;-71
2023/08/15 03:31:36;;;;;;;;;2.67;2.33;;;;;22.66;71.98;100401.75;5039111;28;45502;-71
2023/08/15 03:34:02;;;;;;;;;4.00;3.00;;;;;22.60;71.26;100405.44;5038757;28;45404;-70
2023/08/15 03:36:28;;;;;;;;;4.33;3.00;;;;;22.59;70.92;100400.13;5037987;28;45412;-71
2023/08/15 03:38:54;;;;;;;;;3.00;2.33;;;;;22.54;71.18;100396.69;5038638;28;45507;-71
2023/08/15 03:41:21;;;;;;;;;2.67;2.00;;;;;22.58;71.39;100403.69;5036993;28;45454;-71
2023/08/15 03:43:47;;;;;;;;;3.00;2.33;;;;;22.57;71.53;100401.97;5037963;28;45452;-71
2023/08/15 03:46:13;;;;;;;;;3.33;3.00;;;;;22.54;71.92;100407.34;5036724;28;45495;-71
2023/08/15 03:48:40;;;;;;;;;4.00;3.67;;;;;22.51;71.69;100402.97;5038796;28;45286;-71
2023/08/15 03:51:06;;;;;;;;;3.33;2.67;;;;;22.51;71.74;100397.63;5051091;28;45437;-71
2023/08/15 03:53:32;;;;;;;;;4.00;4.00;;;;;22.58;71.50;100398.38;5041525;28;45404;-71
2023/08/15 03:55:58;;;;;;;;;3.00;3.00;;;;;22.59;70.86;100400.13;5054437;28;45448;-71
2023/08/15 03:58:24;;;;;;;;;3.00;3.00;;;;;22.51;71.75;100396.78;5046729;28;45502;-71
2023/08/15 04:00:50;;;;;;;;;3.00;2.00;;;;;22.48;71.79;100391.50;5041332;28;45637;-71
2023/08/15 04:03:16;;;;;;;;;4.00;3.00;;;;;22.51;71.83;100397.63;5038814;28;46076;-70
2023/08/15 04:05:46;;;;;;;;;5.00;2.00;;;;;22.50;71.00;100403.00;5037946;28;45495;-71
2023/08/15 04:08:13;;;;;;;;;2.33;1.67;;;;;22.47;71.16;100395.94;5037652;28;45228;-71
2023/08/15 04:10:39;;;;;;;;;3.00;2.33;;;;;22.44;71.42;100391.59;5035633;28;45354;-70
2023/08/15 04:13:09;;;;;;;;;3.33;2.67;;;;;22.55;71.99;100407.31;5037959;28;45426;-71
2023/08/15 04:15:37;;;;;;;;;2.67;2.67;;;;;22.57;71.77;100402.81;5038452;28;45533;-71
2023/08/15 04:18:09;;;;;;;;;5.00;5.00;;;;;22.61;72.19;100403.63;5038426;28;45403;-71
2023/08/15 04:20:37;;;;;;;;;5.00;3.00;;;;;22.64;71.98;100403.56;5037902;28;45335;-71
2023/08/15 04:23:04;;;;;;;;;2.00;2.00;;;;;22.66;72.02;100406.19;5037437;28;45449;-71
2023/08/15 04:25:30;;;;;;;;;3.00;3.00;;;;;22.64;71.82;100403.56;5036199;28;45409;-71
2023/08/15 04:27:56;;;;;;;;;3.00;2.33;;;;;22.64;72.03;100399.13;5037557;28;45571;-71
2023/08/15 04:30:22;;;;;;;;;1.00;0.00;;;;;22.65;71.84;100394.69;5037632;28;45449;-71
2023/08/15 04:32:47;;;;;;;;;2.67;2.67;;;;;22.70;71.26;100402.56;5035376;28;46335;-71
2023/08/15 04:35:16;;;;;;;;;3.00;2.00;;;;;22.63;71.32;100409.81;5041342;28;45359;-70
2023/08/15 04:37:42;;;;;;;;;3.00;2.00;;;;;22.66;71.86;100407.09;5039124;28;45345;-71
2023/08/15 04:40:14;;;;;;;;;2.00;2.00;;;;;22.70;71.44;100405.22;5057078;28;45315;-71
2023/08/15 04:42:41;;;;;;;;;2.67;2.00;;;;;22.75;71.71;100412.19;5047876;28;45994;-72
2023/08/15 04:45:08;;;;;;;;;4.00;3.00;;;;;22.72;71.15;100406.06;5037351;28;45443;-72
2023/08/15 04:47:34;;;;;;;;;3.00;2.00;;;;;22.66;71.29;100407.09;5051693;28;45485;-71
2023/08/15 04:50:00;;;;;;;;;3.00;3.00;;;;;22.64;71.56;100406.22;5036679;28;45344;-71
2023/08/15 04:52:25;;;;;;;;;2.00;2.00;;;;;22.67;71.08;100413.28;5043304;28;46517;-71
2023/08/15 04:54:51;;;;;;;;;3.00;2.00;;;;;22.63;71.44;100407.16;5043777;28;45441;-71
2023/08/15 04:57:17;;;;;;;;;2.67;2.00;;;;;22.67;71.01;100424.81;5037039;28;45549;-70
2023/08/15 04:59:43;;;;;;;;;3.00;3.00;;;;;22.60;71.94;100417.84;5037154;28;45525;-71
2023/08/15 05:02:09;;;;;;;;;4.00;2.33;;;;;22.47;72.10;100406.59;5036753;28;45601;-71
2023/08/15 05:04:35;;;;;;;;;3.67;3.00;;;;;22.44;72.25;100418.19;5039598;28;45534;-70
2023/08/15 05:07:00;;;;;;;;;3.00;3.00;;;;;22.44;71.91;100427.94;5056943;28;45258;-70
2023/08/15 05:09:28;;;;;;;;;3.00;2.00;;;;;22.40;71.38;100418.28;5053116;28;45514;-70
2023/08/15 05:11:54;;;;;;;;;3.00;2.00;;;;;22.34;71.64;100418.41;5036387;28;46153;-72
2023/08/15 05:14:21;;;;;;;;;5.00;4.00;;;;;22.30;72.38;100419.38;5036657;28;45451;-71
2023/08/15 05:16:47;;;;;;;;;4.00;3.00;;;;;22.18;72.75;100413.38;5037485;28;45458;-71
2023/08/15 05:19:13;;;;;;;;;4.33;3.00;;;;;22.22;72.20;100411.50;5047921;28;45485;-71
2023/08/15 05:21:41;;;;;;;;;2.67;2.33;;;;;22.18;72.54;100402.75;5048623;28;45441;-70
2023/08/15 05:24:07;;;;;;;;;4.00;4.00;;;;;22.25;72.44;100411.50;5043057;28;45340;-71
2023/08/15 05:26:32;;;;;;;;;2.00;2.00;;;;;22.30;72.47;100420.25;5017231;28;45166;-71
2023/08/15 05:28:58;;;;;;;;;5.00;3.00;;;;;22.32;71.89;100421.13;5032310;28;45347;-71
2023/08/15 05:31:24;;;;;;;;;3.00;2.00;;;;;22.38;71.98;100421.00;5037177;28;45348;-71
2023/08/15 05:33:49;;;;;;;;;1.67;1.67;;;;;22.41;71.54;100418.25;5037319;28;45500;-72
2023/08/15 05:36:15;;;;;;;;;3.00;3.00;;;;;22.39;71.58;100414.75;5037548;28;45436;-71
2023/08/15 05:38:41;;;;;;;;;2.00;2.00;;;;;22.42;71.14;100420.03;5037424;28;45434;-71
2023/08/15 05:41:06;;;;;;;;;3.00;3.00;;;;;22.47;71.51;100416.38;5037101;28;45327;-72
2023/08/15 05:43:32;;;;;;;;;3.33;3.00;;;;;22.49;70.82;100417.22;5036898;28;45451;-71
2023/08/15 05:45:57;;;;;;;;;3.00;2.67;;;;;22.48;71.09;100426.97;5037052;28;45190;-70
2023/08/15 05:48:23;;;;;;;;;2.67;2.33;;;;;22.54;70.83;100418.88;5037434;28;45353;-71
2023/08/15 05:50:49;;;;;;;;;1.67;1.67;;;;;22.63;70.57;100415.13;5036930;28;46116;-71
2023/08/15 05:53:14;;;;;;;;;3.00;2.67;;;;;22.69;70.35;100420.31;5036857;28;45315;-71
2023/08/15 05:55:42;;;;;;;;;3.33;3.33;;;;;22.51;71.01;100407.41;5037320;28;45328;-71
2023/08/15 05:58:08;;;;;;;;;4.33;3.67;;;;;22.70;70.97;100418.53;5037556;28;45310;-71
2023/08/15 06:00:34;;;;;;;;;3.33;3.00;;;;;22.88;70.87;100422.56;5036347;28;45458;-71
2023/08/15 06:03:01;;;;;;;;;4.00;3.00;;;;;22.99;70.33;100426.72;5036612;28;45629;-70
2023/08/15 06:05:30;;;;;;;;;4.67;4.67;;;;;22.97;69.38;100428.56;5039741;28;45433;-71
2023/08/15 06:07:58;;;;;;;;;4.00;4.00;;;;;23.03;69.87;100424.91;5040189;28;45473;-74
2023/08/15 06:10:24;;;;;;;;;5.67;5.00;;;;;23.19;69.24;100433.41;5022399;28;45567;-71
2023/08/15 06:12:50;;;;;;;;;4.00;3.00;;;;;23.17;69.42;100412.13;5038588;28;45647;-71
2023/08/15 06:15:16;;;;;;;;;4.33;4.33;;;;;23.13;68.94;100428.25;5043756;28;45426;-71
2023/08/15 06:17:42;;;;;;;;;4.67;3.00;;;;;23.13;69.63;100426.44;5026994;28;45458;-72
2023/08/15 06:20:10;;;;;;;;;4.00;3.00;;;;;23.27;69.08;100430.56;5021863;28;45407;-71
2023/08/15 06:22:36;;;;;;;;;4.33;3.00;;;;;23.33;68.28;100431.28;5038449;28;45521;-72
2023/08/15 06:25:02;;;;;;;;;3.67;3.00;;;;;24.04;68.11;100426.84;5043832;28;45476;-72
2023/08/15 06:27:27;;;;;;;;;5.67;5.00;;;;;25.11;63.62;100424.56;5060355;28;45436;-72
2023/08/15 06:29:53;;;;;;;;;4.00;4.00;;;;;26.58;60.32;100429.31;5055412;28;45867;-72
2023/08/15 06:32:29;;;;;;;;;5.00;4.00;;;;;28.40;55.13;100419.06;5058204;28;45477;-71
2023/08/15 06:34:55;;;;;;;;;3.00;3.00;;;;;29.98;51.46;100419.41;5060220;28;45519;-71
2023/08/15 06:37:26;;;;;;;;;2.00;2.00;;;;;31.19;49.92;100422.66;5059859;28;45515;-71
2023/08/15 06:39:52;;;;;;;;;2.67;2.00;;;;;32.09;47.86;100419.13;5050630;28;45486;-72
2023/08/15 06:42:18;;;;;;;;;3.00;3.00;;;;;32.46;45.59;100419.50;5039593;28;45495;-71
2023/08/15 06:44:44;;;;;;;;;5.00;3.00;;;;;32.33;45.84;100418.53;5040090;28;45502;-72
2023/08/15 06:47:10;;;;;;;;;6.33;5.00;;;;;32.32;46.83;100413.25;5040054;28;45449;-71
2023/08/15 06:49:36;;;;;;;;;2.33;2.33;;;;;31.77;46.23;100418.34;5059380;28;45975;-71
2023/08/15 06:52:03;;;;;;;;;3.00;3.00;;;;;31.01;47.99;100423.72;5059645;28;45469;-72
2023/08/15 06:54:29;;;;;;;;;3.67;3.00;;;;;30.92;48.17;100422.44;5059903;28;45418;-72
2023/08/15 06:56:54;;;;;;;;;1.67;1.33;;;;;31.79;46.85;100412.88;5059954;28;45542;-71
2023/08/15 06:59:23;;;;;;;;;4.00;3.00;;;;;31.76;45.21;100424.72;5045427;28;46065;-71
2023/08/15 07:01:52;;;;;;;;;2.00;2.00;;;;;31.37;46.65;100420.72;5059259;28;45445;-71
2023/08/15 07:04:17;;;;;;;;;3.67;3.00;;;;;32.59;45.06;100414.22;5059663;28;45441;-71
2023/08/15 07:06:43;;;;;;;;;2.00;2.00;;;;;33.88;41.48;100419.19;5059855;28;45265;-71
2023/08/15 07:09:10;;;;;;;;;2.00;2.00;;;;;33.49;41.70;100423.63;5057016;28;45997;-72
2023/08/15 07:11:35;;;;;;;;;4.67;3.00;;;;;32.79;43.73;100417.47;5059398;28;45403;-72
2023/08/15 07:14:01;;;;;;;;;2.67;1.00;;;;;32.35;44.44;100427.44;5059391;28;45325;-72
2023/08/15 07:16:26;;;;;;;;;3.67;3.00;;;;;32.69;44.31;100423.47;5052588;28;45584;-72
2023/08/15 07:18:52;;;;;;;;;2.33;2.33;;;;;32.58;44.19;100415.19;5038823;28;45426;-72
2023/08/15 07:21:18;;;;;;;;;5.00;4.00;;;;;32.75;43.69;100426.75;5038881;28;45411;-71
2023/08/15 07:23:43;;;;;;;;;4.33;3.33;;;;;32.70;44.74;100418.94;5039695;28;45226;-71
2023/08/15 07:26:09;;;;;;;;;3.00;3.00;;;;;33.28;42.71;100425.94;5057639;28;45704;-72
2023/08/15 07:28:35;;;;;;;;;3.00;2.33;;;;;33.55;42.19;100426.91;5059113;28;45862;-72
2023/08/15 07:31:01;;;;;;;;;3.00;1.00;;;;;33.40;42.22;100424.25;5057311;28;45772;-72
2023/08/15 07:33:26;;;;;;;;;2.00;2.00;;;;;33.60;41.06;100427.44;5059170;28;45434;-72
2023/08/15 07:35:53;;;;;;;;;4.33;2.00;;;;;34.65;41.27;100421.91;5058967;28;45520;-71
2023/08/15 07:38:19;;;;;;;;;13.00;11.00;;;;;35.96;37.56;100420.22;5057449;28;46361;-71
2023/08/15 07:40:47;;;;;;;;;3.00;2.00;;;;;37.09;36.22;100409.31;5059141;28;45577;-72
2023/08/15 07:43:12;;;;;;;;;4.33;3.00;;;;;38.25;36.59;100415.84;5057399;28;45728;-72
2023/08/15 07:45:38;;;;;;;;;2.00;2.00;;;;;39.57;32.84;100425.66;5058916;28;45418;-71
2023/08/15 07:48:04;;;;;;;;;4.00;4.00;;;;;40.17;30.54;100422.69;5058718;28;45481;-72
2023/08/15 07:50:30;;;;;;;;;3.00;2.67;;;;;40.76;30.17;100417.88;5047806;28;45410;-72
2023/08/15 07:52:59;;;;;;;;;2.33;2.33;;;;;41.49;29.86;100414.19;5038408;28;45411;-72
2023/08/15 07:55:30;;;;;;;;;15.67;14.00;;;;;42.24;29.64;100402.75;5038687;28;45431;-72
2023/08/15 07:57:56;;;;;;;;;2.67;2.67;;;;;42.95;29.83;100414.41;5038541;28;45989;-72
2023/08/15 08:00:22;;;;;;;;;2.00;2.00;;;;;43.47;27.17;100409.50;5046549;28;45445;-72
2023/08/15 08:02:48;;;;;;;;;5.33;4.00;;;;;43.71;26.34;100417.94;5056460;28;45513;-72
2023/08/15 08:05:16;;;;;;;;;1.00;1.00;;;;;44.06;26.37;100413.94;5059020;28;45416;-73
2023/08/15 08:07:43;;;;;;;;;1.33;1.33;;;;;44.52;26.11;100408.66;5056147;28;45853;-73
2023/08/15 08:10:09;;;;;;;;;1.33;1.33;;;;;44.84;25.90;100410.38;5055901;28;45393;-73
2023/08/15 08:12:35;;;;;;;;;4.00;3.67;;;;;45.00;23.79;100389.31;5056258;28;45325;-73
2023/08/15 08:15:02;;;;;;;;;4.00;3.00;;;;;44.57;24.94;100394.34;5058041;28;45311;-73
2023/08/15 08:17:27;;;;;;;;;3.00;2.00;;;;;44.96;25.72;100391.56;5056037;28;45482;-73
2023/08/15 08:19:54;;;;;;;;;3.00;2.67;;;;;44.08;26.45;100387.13;5048805;28;45567;-72
2023/08/15 08:22:20;;;;;;;;;3.00;3.00;;;;;43.33;27.70;100381.84;5036084;28;45420;-73
2023/08/15 08:24:48;;;;;;;;;3.00;2.33;;;;;43.83;25.98;100381.66;5047646;28;45407;-73
2023/08/15 08:27:14;;;;;;;;;2.00;2.00;;;;;43.81;26.89;100377.34;5038073;28;45261;-70
2023/08/15 08:29:39;;;;;;;;;2.33;2.33;;;;;42.87;26.99;100377.63;5037314;28;45426;-70
2023/08/15 08:32:05;;;;;;;;;3.00;2.00;;;;;42.11;27.64;100373.88;5037444;28;45202;-70
2023/08/15 08:34:31;;;;;;;;;1.33;1.33;;;;;42.30;28.02;100372.78;5037539;28;45448;-71
2023/08/15 08:36:56;;;;;;;;;2.33;2.33;;;;;43.63;26.84;100369.28;5037258;28;45857;-69
2023/08/15 08:39:22;;;;;;;;;3.00;2.00;;;;;43.13;27.09;100373.88;5043164;28;45546;-69
2023/08/15 08:41:48;;;;;;;;;1.67;1.67;;;;;42.16;27.72;100367.03;5057905;28;45459;-69
2023/08/15 08:44:17;;;;;;;;;2.00;1.67;;;;;42.12;28.46;100358.25;5058020;28;45362;-71
2023/08/15 08:46:44;;;;;;;;;1.67;1.67;;;;;42.58;28.42;100360.69;5057297;28;45359;-71
2023/08/15 08:49:11;;;;;;;;;3.00;3.00;;;;;41.60;28.96;100370.06;5040360;28;45420;-71
2023/08/15 08:51:37;;;;;;;;;5.67;5.67;;;;;41.26;28.18;100364.47;5036449;28;45580;-74
2023/08/15 08:54:03;;;;;;;;;2.67;2.67;;;;;40.56;29.44;100365.91;5049631;28;45565;-72
2023/08/15 08:56:31;;;;;;;;;1.67;1.67;;;;;40.08;29.78;100363.41;5037822;28;46112;-71
2023/08/15 08:59:05;;;;;;;;;2.00;2.00;;;;;39.27;31.40;100359.19;5035599;28;45488;-71
2023/08/15 09:01:31;;;;;;;;;1.00;1.00;;;;;40.28;30.09;100364.19;5026037;28;45558;-70
2023/08/15 09:03:57;;;;;;;;;10.67;10.67;;;;;41.36;29.54;100359.75;5036477;28;45418;-68
2023/08/15 09:06:27;;;;;;;;;6.00;4.67;;;;;41.53;28.33;100360.75;5041687;28;45485;-70
2023/08/15 09:08:53;;;;;;;;;3.33;3.00;;;;;41.78;28.31;100366.44;5043286;28;45388;-68
2023/08/15 09:11:20;;;;;;;;;1.67;1.67;;;;;42.65;27.77;100367.25;5036350;28;45469;-69
2023/08/15 09:13:50;;;;;;;;;1.00;1.00;;;;;43.10;27.01;100363.25;5036694;28;45451;-70
2023/08/15 09:16:16;;;;;;;;;1.00;1.00;;;;;42.68;28.41;100356.78;5034737;28;46251;-70
2023/08/15 09:18:43;;;;;;;;;2.00;1.00;;;;;42.81;27.16;100361.78;5038469;28;45543;-71
2023/08/15 09:21:11;;;;;;;;;0.00;0.00;;;;;42.82;25.67;100359.88;5036221;28;45444;-70
2023/08/15 09:23:40;;;;;;;;;0.67;0.67;;;;;42.50;26.84;100362.41;5036753;28;45615;-70
2023/08/15 09:26:13;;;;;;;;;2.00;2.00;;;;;42.70;27.40;100356.63;5048472;28;46304;-70
2023/08/15 09:28:44;;;;;;;;;1.00;1.00;;;;;42.84;25.75;100353.22;5043785;28;45493;-70
2023/08/15 09:31:11;;;;;;;;;2.00;1.00;;;;;42.60;25.92;100348.53;5037086;28;45524;-69
2023/08/15 09:33:38;;;;;;;;;1.00;1.00;;;;;42.19;26.29;100345.59;5046962;28;45492;-69
2023/08/15 09:36:08;;;;;;;;;4.00;2.33;;;;;41.56;27.62;100346.72;5038786;28;45402;-69
2023/08/15 09:38:37;;;;;;;;;1.33;1.33;;;;;41.76;27.17;100339.16;5036027;28;45454;-70
2023/08/15 09:41:03;;;;;;;;;0.00;0.00;;;;;41.87;26.78;100341.63;5038486;28;45442;-77
2023/08/15 09:43:30;;;;;;;;;3.00;3.00;;;;;42.04;26.77;100339.88;5056228;28;45492;-70
2023/08/15 09:45:59;;;;;;;;;2.67;2.67;;;;;41.65;27.62;100334.81;5055827;28;45366;-71
2023/08/15 09:48:28;;;;;;;;;4.00;3.33;;;;;40.95;27.72;100341.03;5050980;28;45635;-68
2023/08/15 09:50:56;;;;;;;;;0.67;0.67;;;;;41.18;28.10;100345.22;5055341;28;45595;-70
2023/08/15 09:53:25;;;;;;;;;4.00;2.00;;;;;40.97;29.03;100343.63;5042485;28;45501;-69
2023/08/15 09:55:51;;;;;;;;;3.00;2.67;;;;;40.49;28.58;100344.78;5039611;28;46235;-71
2023/08/15 09:58:18;;;;;;;;;1.33;0.67;;;;;40.20;29.40;100345.78;5054000;28;46124;-71
2023/08/15 10:00:50;;;;;;;;;3.33;3.33;;;;;39.92;29.63;100345.75;5043359;28;45525;-68
2023/08/15 10:03:19;;;;;;;;;7.00;6.00;;;;;39.70;30.59;100338.72;5039567;28;45861;-70
2023/08/15 10:05:57;;;;;;;;;4.00;4.00;;;;;38.95;30.65;100337.59;5034478;28;45454;-71
2023/08/15 10:08:23;;;;;;;;;3.33;3.00;;;;;39.01;30.73;100341.66;5034033;28;45515;-71
2023/08/15 10:10:51;;;;;;;;;6.00;5.00;;;;;38.51;31.07;100337.94;5033694;28;45494;-71
2023/08/15 10:13:24;;;;;;;;;5.00;5.00;;;;;38.52;31.52;100328.78;5034576;28;45341;-72
2023/08/15 10:15:52;;;;;;;;;2.67;2.00;;;;;37.99;32.41;100338.00;5038315;28;45609;-72
2023/08/15 10:18:18;;;;;;;;;1.00;1.00;;;;;37.64;32.65;100334.81;5038664;28;45230;-72
2023/08/15 10:20:51;;;;;;;;;3.00;2.67;;;;;37.10;33.87;100333.94;5045935;28;45382;-70
2023/08/15 10:23:33;;;;;;;;;3.00;3.00;;;;;36.63;34.10;100345.97;5035965;28;45223;-71
2023/08/15 10:26:00;;;;;;;;;2.00;2.00;;;;;36.12;34.74;100338.28;5034715;28;45260;-71
2023/08/15 10:28:28;;;;;;;;;2.00;2.00;;;;;35.70;35.50;100340.75;5035666;28;45505;-71
2023/08/15 10:30:54;;;;;;;;;2.33;2.33;;;;;35.60;35.65;100334.28;5036367;28;45657;-71
2023/08/15 10:33:26;;;;;;;;;4.00;4.00;;;;;35.18;36.06;100344.78;5035260;28;45348;-73
2023/08/15 10:36:06;;;;;;;;;0.67;0.67;;;;;34.96;36.54;100340.03;5034363;28;46069;-72
2023/08/15 10:38:43;;;;;;;;;3.33;3.00;;;;;34.70;36.94;100337.47;5036612;28;45492;-70
2023/08/15 10:41:19;;;;;;;;;14.00;13.00;;;;;34.55;37.71;100339.44;5036020;28;45513;-69
2023/08/15 10:43:55;;;;;;;;;3.00;2.67;;;;;34.70;37.27;100334.75;5032133;28;45444;-69
2023/08/15 10:46:29;;;;;;;;;0.33;0.33;;;;;34.81;37.11;100326.66;5035879;28;46613;-68
2023/08/15 10:49:05;;;;;;;;;1.00;1.00;;;;;34.84;37.60;100329.16;5033742;28;45446;-71
2023/08/15 10:51:36;;;;;;;;;1.33;1.33;;;;;34.77;37.95;100335.16;5035086;28;45469;-75
2023/08/15 10:54:20;;;;;;;;;2.67;2.67;;;;;34.67;38.00;100324.13;5038735;28;45446;-75
2023/08/15 10:56:46;;;;;;;;;10.33;10.33;;;;;34.64;37.84;100325.19;5035533;28;45682;-75
2023/08/15 10:59:15;;;;;;;;;7.67;7.00;;;;;34.89;37.62;100330.66;5037561;28;45524;-75
2023/08/15 11:01:42;;;;;;;;;5.33;4.33;;;;;35.05;37.33;100315.78;5036579;28;45553;-73
2023/08/15 11:04:13;;;;;;;;;2.00;2.00;;;;;34.69;37.53;100326.72;5037148;28;45476;-72
2023/08/15 11:06:45;;;;;;;;;2.33;2.33;;;;;33.91;38.36;100325.13;5036636;28;45633;-72
2023/08/15 11:09:11;;;;;;;;;1.00;1.00;;;;;33.52;38.82;100318.78;5036882;28;45634;-76
2023/08/15 11:11:36;;;;;;;;;3.67;3.00;;;;;33.63;39.40;100317.09;5037974;28;45499;-73
2023/08/15 11:14:02;;;;;;;;;5.00;4.33;;;;;33.83;39.31;100312.97;5032959;28;46925;-71
2023/08/15 11:16:28;;;;;;;;;8.67;8.00;;;;;33.81;39.40;100314.06;5034728;28;47998;-74
2023/08/15 11:18:57;;;;;;;;;3.00;2.67;;;;;33.98;39.17;100315.53;5033789;28;45518;-72
2023/08/15 11:21:28;;;;;;;;;6.00;5.67;;;;;34.31;38.48;100304.13;5032508;28;46288;-71
2023/08/15 11:23:59;;;;;;;;;2.33;2.33;;;;;34.12;38.05;100295.59;5035617;28;45446;-72
2023/08/15 11:26:25;;;;;;;;;2.33;2.33;;;;;33.94;38.80;100306.75;5035621;28;46837;-72